WARNING - Change wsUserSettings.php: $SITE["topfolder"] from : public_html./ to: ./
Iedere zaterdag na 11 uur op radio zuidwest.

Onweer radar Meer informatie blitzortung!


Regen radar Meer informatie rain snow radar


Bezoek onze andere website:

Template documentation
and downloads


U vindt ons ook hier:

Het Weer Aktueel

UK Metoffice

European Weather Network

WeatherCloud

Weather Underground

Austria Weather Network

AWEKAS

Citizen Weather Observer Program (CWOP)

HAMweather, WeatherForYou, PWS Weather

Wetterpage 24

Roosendaal nieuws

VWKWEB

RadioZuidWestFM



Aardbevingen in de afgelopen 7 dagen

Aardbevingen in de laatste 7 dagen met een kracht van 2.0 of groter op 15000 km
Laatste wijziging = 19-04-2024 17:59

Epicenter in de buurt van Magnitude Afstand tot epicenter Lokale tijd Link
55 km NNW of Petersville, Alaska 2.7 0071107110 km 171354078219-04-2024 15:33 kaart
15 km NNW of Mentone, Texas 2.5 0084088408 km 171354047719-04-2024 15:27 kaart
19 km NNE of Karnes City, Texas 2.5 0083008300 km 171353971819-04-2024 15:15 kaart
near the north coast of Greenland 4.5 0035993599 km 171353529719-04-2024 14:01 kaart
67 km WSW of Adak, Alaska 4.1 0085398539 km 171353123519-04-2024 12:53 kaart
Bonin Islands, Japan region 4.4 01017410174 km 171353100819-04-2024 12:50 kaart
50 km SW of Buckland, Alaska 4.0 0069346934 km 171353050619-04-2024 12:41 kaart
11 km SW of Volcano, Hawaii 2.3 01188811888 km 171352864519-04-2024 12:10 kaart
28 km SSE of Mina, Nevada 2.9 0085848584 km 171352834519-04-2024 12:05 kaart
central Mid-Atlantic Ridge 5.2 0064556455 km 171352444019-04-2024 11:00 kaart
20 km NE of Olancha, CA 2.1 0087428742 km 171352184919-04-2024 10:17 kaart
85 km N of Karluk, Alaska 2.4 0076517651 km 171351904319-04-2024 09:30 kaart
56 km S of Whites City, New Mexico 2.0 0084648464 km 171351885719-04-2024 09:27 kaart
55 km S of Whites City, New Mexico 2.9 0084628462 km 171351859319-04-2024 09:23 kaart
12 km SW of Volcano, Hawaii 2.0 01188911889 km 171351667519-04-2024 08:51 kaart
14 km S of Fern Forest, Hawaii 2.6 01188711887 km 171351491019-04-2024 08:21 kaart
2 km WNW of Indios, Puerto Rico 2.2 0071627162 km 171351454319-04-2024 08:15 kaart
10 km ENE of Néon Karlovásion, Greece 4.3 0023162316 km 171351374019-04-2024 08:02 kaart
7 km SSW of Guánica, Puerto Rico 2.2 0071777177 km 171351338519-04-2024 07:56 kaart
4 km WSW of Guánica, Puerto Rico 2.5 0071747174 km 171351330819-04-2024 07:55 kaart
1 km NW of Pāhala, Hawaii 2.4 01190811908 km 171351319219-04-2024 07:53 kaart
4 km S of Pāhala, Hawaii 2.2 01191411914 km 171351230419-04-2024 07:38 kaart
16 km WNW of Bryson City, North Carolina 2.1 0068786878 km 171351222519-04-2024 07:37 kaart
156 km SE of Chignik, Alaska 4.6 0080258025 km 171351165319-04-2024 07:27 kaart
10 km NNE of Coso Junction, CA 2.1 0087718771 km 171351152319-04-2024 07:25 kaart
0 km NNW of Palomas, Puerto Rico 2.3 0071637163 km 171350820419-04-2024 06:30 kaart
6 km NNW of Manado, Indonesia 4.2 01190511905 km 171350652419-04-2024 06:02 kaart
18 km W of Volcano, Hawaii 2.0 01188311883 km 171350630119-04-2024 05:58 kaart
12 km W of La Porte, CA 2.1 0085868586 km 171350568719-04-2024 05:48 kaart
87 km W of Kuqa, China 4.6 0057265726 km 171350447619-04-2024 05:27 kaart
11 km NE of Pāhala, Hawaii 2.3 01190011900 km 171350387119-04-2024 05:17 kaart
10 km S of Bodfish, CA 3.2 0088608860 km 171350230219-04-2024 04:51 kaart
79 km NE of Loreto, Mexico 4.2 0092889288 km 171350102819-04-2024 04:30 kaart
South Sandwich Islands region 4.6 01256412564 km 171350053219-04-2024 04:22 kaart
4 km SSW of Pāhala, Hawaii 2.2 01191411914 km 171349924419-04-2024 04:00 kaart
4 km S of Pāhala, Hawaii 2.0 01191411914 km 171349907719-04-2024 03:57 kaart
12 km SSE of Fern Forest, Hawaii 2.2 01188211882 km 171349873219-04-2024 03:52 kaart
51 km S of Whites City, New Mexico 2.6 0084528452 km 171349818019-04-2024 03:43 kaart
18 km S of Susitna, Alaska 2.1 0072647264 km 171349277619-04-2024 02:12 kaart
126 km NW of Yakutat, Alaska 2.0 0072197219 km 171349214519-04-2024 02:02 kaart
7 km NW of Woodlawn, Illinois 2.2 0069906990 km 171348875219-04-2024 01:05 kaart
5 km S of Pāhala, Hawaii 2.1 01191511915 km 171348830719-04-2024 00:58 kaart
2 km ENE of Fujioka, Japan 4.5 0093259325 km 171348680419-04-2024 00:33 kaart
70 km NNE of Petersville, Alaska 2.4 0070797079 km 171348279618-04-2024 23:26 kaart
21 km SW of Sabzevar, Iran 4.4 0044784478 km 171348177018-04-2024 23:09 kaart
19 km SW of Gorgān, Iran 4.3 0042124212 km 171347952118-04-2024 22:32 kaart
13 km N of Hollister, CA 2.0 0088558855 km 171347868818-04-2024 22:18 kaart
11 km SSW of Bodfish, CA 2.2 0088608860 km 171347523318-04-2024 21:20 kaart
21 km S of Petersville, Alaska 3.3 0071707170 km 171347517918-04-2024 21:19 kaart
6 km S of Salinas, Puerto Rico 2.4 0071327132 km 171347517318-04-2024 21:19 kaart
10 km NW of Pinnacles, CA 2.5 0088838883 km 171347380218-04-2024 20:56 kaart
84 km N of Tocopilla, Chile 4.5 01085410854 km 171347333718-04-2024 20:48 kaart
11 km S of Bodfish, CA 2.4 0088608860 km 171347246618-04-2024 20:34 kaart
12 km NE of Susitna North, Alaska 3.6 0071617161 km 171347230818-04-2024 20:31 kaart
11 km SSW of Bodfish, CA 2.1 0088608860 km 171347130918-04-2024 20:15 kaart
10 km NE of Pāhala, Hawaii 2.2 01190011900 km 171347032718-04-2024 19:58 kaart
4 km NNW of Sulusaray, Turkey 4.4 0027352735 km 171346870418-04-2024 19:31 kaart
11 km S of Bodfish, CA 4.3 0088608860 km 171346795818-04-2024 19:19 kaart
179 km NNE of Colonia, Micronesia 4.8 01178511785 km 171346776618-04-2024 19:16 kaart
27 km SSW of Ocotillo Wells, CA 2.0 0089908990 km 171346663518-04-2024 18:57 kaart
129 km NE of Saipan, Northern Mariana Islands 4.6 01167511675 km 171346590018-04-2024 18:45 kaart
4 km NNW of Sulusaray, Turkey 4.2 0027362736 km 171346580918-04-2024 18:43 kaart
western Xizang 4.4 0063276327 km 171346277718-04-2024 17:52 kaart
western Xizang 5.1 0063246324 km 171346200218-04-2024 17:40 kaart
55 km NW of Toyah, Texas 2.2 0084618461 km 171346137818-04-2024 17:29 kaart
52 km WSW of Acajutla, El Salvador 4.3 0091659165 km 171346068318-04-2024 17:18 kaart
25 km SE of Boca de Yuma, Dominican Republic 3.9 0072507250 km 171345769818-04-2024 16:28 kaart
32 km SSE of Perryville, Alaska 2.3 0079987998 km 171345721518-04-2024 16:20 kaart
49 km E of Loreto, Mexico 4.4 0093359335 km 171345682218-04-2024 16:13 kaart
37 km ENE of McKinney Acres, Texas 2.6 0082688268 km 171345674418-04-2024 16:12 kaart
50 km SE of Denali National Park, Alaska 2.1 0070677067 km 171345656918-04-2024 16:09 kaart
7 km SW of Volcano, Hawaii 2.1 01188411884 km 171345498918-04-2024 15:43 kaart
37 km S of Padam, India 4.4 0060216021 km 171345375718-04-2024 15:22 kaart
10 km S of Bondurant, Wyoming 2.6 0077687768 km 171345333118-04-2024 15:15 kaart
87 km ENE of Loreto, Mexico 5.6 0093029302 km 171345315818-04-2024 15:12 kaart
9 km W of Sulusaray, Turkey 5.6 0027322732 km 171345308518-04-2024 15:11 kaart
134 km ENE of Saipan, Northern Mariana Islands 4.7 01169311693 km 171344910818-04-2024 14:05 kaart
3 km ENE of La Parguera, Puerto Rico 2.4 0071767176 km 171344838118-04-2024 13:53 kaart
83 km ESE of Yakutat, Alaska 2.3 0072567256 km 171344722718-04-2024 13:33 kaart
6 km NW of Belden, CA 2.6 0085588558 km 171344648518-04-2024 13:21 kaart
11 km NE of Pāhala, Hawaii 2.1 01190111901 km 171344462918-04-2024 12:50 kaart
11 km ESE of Pāhala, Hawaii 2.0 01191211912 km 171344425918-04-2024 12:44 kaart
101 km SW of Manuel Ávila Camacho (Ponte Duro), Mexico 4.4 0092809280 km 171344218118-04-2024 12:09 kaart
2 km E of La Parguera, Puerto Rico 3.2 0071777177 km 171344190518-04-2024 12:05 kaart
3 km SSW of Pāhala, Hawaii 2.2 01191311913 km 171344094018-04-2024 11:49 kaart
1 km E of Prattville, CA 2.7 0085358535 km 171343970718-04-2024 11:28 kaart
11 km ENE of Pāhala, Hawaii 2.1 01190211902 km 171343926518-04-2024 11:21 kaart
0 km W of Pāhala, Hawaii 2.0 01190911909 km 171343629118-04-2024 10:31 kaart
57 km E of Pedro Bay, Alaska 2.5 0074727472 km 171343284118-04-2024 09:34 kaart
69 km W of Petrolia, CA 3.4 0086888688 km 171343280118-04-2024 09:33 kaart
Volcano Islands, Japan region 5.4 01083010830 km 171343255618-04-2024 09:29 kaart
5 km SSW of Indios, Puerto Rico 2.4 0071677167 km 171343047018-04-2024 08:54 kaart
49 km WNW of Beluga, Alaska 2.0 0072887288 km 171342987918-04-2024 08:44 kaart
203 km W of Port McNeill, Canada 4.1 0078987898 km 171342961218-04-2024 08:40 kaart
southern Mid-Atlantic Ridge 5.2 01077810778 km 171342877318-04-2024 08:26 kaart
26 km WNW of Willow, Alaska 2.2 0072107210 km 171342816218-04-2024 08:16 kaart
100 km SSW of Calama, Chile 4.5 01096110961 km 171342682918-04-2024 07:53 kaart
83 km ENE of Loreto, Mexico 5.2 0093009300 km 171342597918-04-2024 07:39 kaart
207 km WSW of Port McNeill, Canada 4.3 0079127912 km 171342250518-04-2024 06:41 kaart
199 km W of Port McNeill, Canada 4.9 0078987898 km 171342036518-04-2024 06:06 kaart
8 km NW of Prague, Oklahoma 2.1 0076827682 km 171341904418-04-2024 05:44 kaart
43 km W of Happy Valley, Alaska 2.0 0074447444 km 171341587618-04-2024 04:51 kaart
62 km S of Whites City, New Mexico 2.4 0084728472 km 171341207518-04-2024 03:47 kaart
82 km ESE of Yakutat, Alaska 2.8 0072517251 km 171340886418-04-2024 02:54 kaart
27 km N of Trinidad, CA 2.2 0085588558 km 171340776718-04-2024 02:36 kaart
21 km ENE of Falls City, Texas 2.0 0082998299 km 171340745918-04-2024 02:30 kaart
20 km ENE of Falls City, Texas 2.6 0082998299 km 171340576118-04-2024 02:02 kaart
16 km NNW of Ninilchik, Alaska 2.2 0074117411 km 171340477318-04-2024 01:46 kaart
118 km WNW of Aykol, China 4.3 0055605560 km 171339981618-04-2024 00:23 kaart
10 km WNW of Sulusaray, Turkey 4.1 0027302730 km 171339694717-04-2024 23:35 kaart
9 km NE of Pāhala, Hawaii 2.2 01190111901 km 171339410617-04-2024 22:48 kaart
10 km W of Sulusaray, Turkey 4.6 0027312731 km 171339162017-04-2024 22:07 kaart
58 km E of Loreto, Mexico 4.4 0093279327 km 171339125917-04-2024 22:00 kaart
16 km SSE of Ponce, Puerto Rico 2.4 0071567156 km 171339112117-04-2024 21:58 kaart
18 km ESE of Naalehu, Hawaii 2.4 01193011930 km 171339106317-04-2024 21:57 kaart
203 km WSW of Port McNeill, Canada 4.9 0079067906 km 171339037517-04-2024 21:46 kaart
21 km ESE of Cárdenas, Nicaragua 5.5 0090229022 km 171338891417-04-2024 21:21 kaart
4 km NE of Curití, Colombia 4.4 0085668566 km 171338700117-04-2024 20:50 kaart
5 km W of Dell, Arkansas 2.8 0072557255 km 171338658617-04-2024 20:43 kaart
17 km ESE of Naalehu, Hawaii 2.4 01193011930 km 171338453617-04-2024 20:08 kaart
18 km ESE of Naalehu, Hawaii 2.0 01193011930 km 171338319017-04-2024 19:46 kaart
72 km W of Petrolia, CA 3.0 0086868686 km 171337333417-04-2024 17:02 kaart
13 km S of Rancho Palos Verdes, CA 2.6 0090309030 km 171336938117-04-2024 15:56 kaart
2 km SSE of Long Beach, CA 2.6 0090039003 km 171336935817-04-2024 15:55 kaart
8 km WSW of Kenwood, CA 2.5 0087748774 km 171336809517-04-2024 15:34 kaart
6 km SW of Guánica, Puerto Rico 2.0 0071767176 km 171336416217-04-2024 14:29 kaart
17 km WSW of Uwajima, Japan 6.3 0093179317 km 171336328517-04-2024 14:14 kaart
55 km S of Whites City, New Mexico 2.1 0084628462 km 171336200017-04-2024 13:53 kaart
77 km ENE of Loreto, Mexico 4.7 0093059305 km 171336196617-04-2024 13:52 kaart
4 km SSW of Potala Pastillo, Puerto Rico 2.2 0071447144 km 171336075917-04-2024 13:32 kaart
4 km SSW of Potala Pastillo, Puerto Rico 3.1 0071447144 km 171335974017-04-2024 13:15 kaart
western Xizang 4.9 0063236323 km 171335651617-04-2024 12:21 kaart
4 km SSE of Magas Arriba, Puerto Rico 2.4 0071597159 km 171335549717-04-2024 12:04 kaart
6 km NNW of Smiths Ferry, Idaho 2.0 0079237923 km 171335515817-04-2024 11:59 kaart
78 km ENE of Loreto, Mexico 4.9 0093079307 km 171335508717-04-2024 11:58 kaart
40 km WNW of Skwentna, Alaska 2.1 0072047204 km 171335465517-04-2024 11:50 kaart
0 km ENE of Pāhala, Hawaii 2.0 01190911909 km 171335203417-04-2024 11:07 kaart
7 km WSW of Fuig, Puerto Rico 2.5 0071767176 km 171335203117-04-2024 11:07 kaart
59 km WSW of Adak, Alaska 2.0 0085298529 km 171335108417-04-2024 10:51 kaart
60 km WSW of Adak, Alaska 2.8 0085298529 km 171335064317-04-2024 10:44 kaart
58 km S of Whites City, New Mexico 2.0 0084678467 km 171335054517-04-2024 10:42 kaart
59 km WSW of Adak, Alaska 2.7 0085308530 km 171335044217-04-2024 10:40 kaart
92 km WNW of Yakutat, Alaska 2.4 0072347234 km 171334980817-04-2024 10:30 kaart
16 km SE of Hualien City, Taiwan 5.0 0096489648 km 171334543017-04-2024 09:17 kaart
117 km N of Paciran, Indonesia 4.6 01174711747 km 171334170617-04-2024 08:15 kaart
6 km W of Mayagüez, Puerto Rico 2.9 0071717171 km 171334025417-04-2024 07:50 kaart
33 km NNE of Herlong, California 2.0 0084638463 km 171334021617-04-2024 07:50 kaart
103 km N of Culebra, Puerto Rico 3.5 0069516951 km 171333972417-04-2024 07:42 kaart
18 km W of Isla Vista, CA 2.0 0090349034 km 171333885917-04-2024 07:27 kaart
11 km E of Pāhala, Hawaii 2.3 01190811908 km 171333847617-04-2024 07:21 kaart
3 km S of Pāhala, Hawaii 2.2 01191311913 km 171333809717-04-2024 07:14 kaart
24 km SW of Hiko, Nevada 2.1 0085278527 km 171333571517-04-2024 06:35 kaart
25 km SSE of Valdez, Alaska 2.2 0072367236 km 171333552417-04-2024 06:32 kaart
68 km ESE of Denali National Park, Alaska 2.0 0070677067 km 171333105117-04-2024 05:17 kaart
59 km E of Loreto, Mexico 4.4 0093329332 km 171333076817-04-2024 05:12 kaart
12 km E of Pāhala, Hawaii 2.4 01190811908 km 171332931817-04-2024 04:48 kaart
34 km NNW of Kuqa, China 4.9 0057665766 km 171332775317-04-2024 04:22 kaart
49 km ENE of Susitna North, Alaska 2.2 0071397139 km 171332712917-04-2024 04:12 kaart
57 km S of Bintuni, Indonesia 4.6 01281612816 km 171332616017-04-2024 03:56 kaart
2 km WSW of Indios, Puerto Rico 2.3 0071647164 km 171332382617-04-2024 03:17 kaart
62 km SSW of Whites City, New Mexico 2.4 0084748474 km 171332060317-04-2024 02:23 kaart
120 km WSW of Nikolski, Alaska 4.3 0084448444 km 171331850717-04-2024 01:48 kaart
90 km E of Loreto, Mexico 4.9 0093119311 km 171331831417-04-2024 01:45 kaart
20 km ENE of Falls City, Texas 2.2 0083008300 km 171331801717-04-2024 01:40 kaart
10 km NNE of Coso Junction, CA 2.2 0087718771 km 171331690117-04-2024 01:21 kaart
20 km SSW of Nixon, Texas 2.0 0082968296 km 171331431817-04-2024 00:38 kaart
20 km SSW of Nixon, Texas 2.0 0082978297 km 171331325117-04-2024 00:20 kaart
9 km NE of Pāhala, Hawaii 2.3 01190211902 km 171331275717-04-2024 00:12 kaart
21 km SSW of Nixon, Texas 3.2 0082988298 km 171331266017-04-2024 00:11 kaart
88 km ESE of Loreto, Mexico 4.4 0093469346 km 171331141516-04-2024 23:50 kaart
2 km SSE of Mentone, CA 2.0 0089288928 km 171331053416-04-2024 23:35 kaart
6 km S of Brawley, CA 2.1 0089538953 km 171330902516-04-2024 23:10 kaart
40 km SE of Port Blair, India 5.2 0089188918 km 171330848316-04-2024 23:01 kaart
15 km SE of Pāhala, Hawaii 2.4 01191611916 km 171330774716-04-2024 22:49 kaart
72 km WNW of San Antonio de los Cobres, Argentina 4.5 01089410894 km 171330304316-04-2024 21:30 kaart
19 km NNW of Runge, Texas 2.1 0083008300 km 171330301716-04-2024 21:30 kaart
52 km NW of Toyah, Texas 2.7 0084518451 km 171330279916-04-2024 21:26 kaart
10 km NE of Coso Junction, CA 2.0 0087718771 km 171330242316-04-2024 21:20 kaart
14 km N of Sincik, Turkey 4.3 0030363036 km 171330179016-04-2024 21:09 kaart
91 km ESE of Ugashik, Alaska 2.5 0077927792 km 171330166916-04-2024 21:07 kaart
127 km NNW of Fannūj, Iran 4.3 0052395239 km 171330118916-04-2024 20:59 kaart
11 km ENE of La Romana, Dominican Republic 3.8 0072647264 km 171330100616-04-2024 20:56 kaart
178 km S of Unalaska, Alaska 4.1 0084368436 km 171329958416-04-2024 20:33 kaart
56 km ENE of Pedro Bay, Alaska 2.2 0074577457 km 171329906816-04-2024 20:24 kaart
Bonin Islands, Japan region 4.8 01043310433 km 171329875616-04-2024 20:19 kaart
49 km WNW of Ninilchik, Alaska 2.3 0074247424 km 171329844416-04-2024 20:14 kaart
76 km SE of Denali National Park, Alaska 2.4 0070737073 km 171329809616-04-2024 20:08 kaart
16 km ENE of Hawaiian Paradise Park, Hawaii 2.3 01184311843 km 171329785216-04-2024 20:04 kaart
14 km SE of Nueva Concepción, Guatemala 4.4 0091689168 km 171329619316-04-2024 19:36 kaart
22 km ENE of Hualien City, Taiwan 4.4 0096359635 km 171329398916-04-2024 18:59 kaart
10 km NE of Coso Junction, CA 2.2 0087718771 km 171329368116-04-2024 18:54 kaart
40 km NNE of Valdez, Alaska 2.0 0071817181 km 171329224016-04-2024 18:30 kaart
11 km WNW of Yamada, Japan 4.6 0090809080 km 171329169016-04-2024 18:21 kaart
1 km SW of Palmarejo, Puerto Rico 2.0 0071777177 km 171328943416-04-2024 17:43 kaart
10 km NE of Coso Junction, CA 3.4 0087718771 km 171328939116-04-2024 17:43 kaart
39 km W of Salamatof, Alaska 2.0 0073727372 km 171328807416-04-2024 17:21 kaart
10 km SW of Chuathbaluk, Alaska 2.8 0073657365 km 171328697816-04-2024 17:02 kaart
79 km W of Ferndale, CA 2.9 0086668666 km 171328577016-04-2024 16:42 kaart
5 km SW of Volcano, Hawaii 2.5 01188211882 km 171328374316-04-2024 16:09 kaart
9 km NE of Coso Junction, CA 2.0 0087718771 km 171328369416-04-2024 16:08 kaart
24 km E of Union, Philippines 5.0 01123411234 km 171328357416-04-2024 16:06 kaart
10 km NNE of Coso Junction, CA 2.0 0087718771 km 171328134816-04-2024 15:29 kaart
10 km NNE of Coso Junction, CA 3.2 0087718771 km 171328114016-04-2024 15:25 kaart
10 km NE of Coso Junction, CA 2.5 0087718771 km 171328105516-04-2024 15:24 kaart
9 km NNE of Coso Junction, CA 3.9 0087718771 km 171328100616-04-2024 15:23 kaart
10 km NNE of Coso Junction, CA 3.4 0087718771 km 171328098316-04-2024 15:23 kaart
0 km SSW of View Park-Windsor Hills, CA 2.8 0089948994 km 171328075016-04-2024 15:19 kaart
86 km ESE of Inarajan Village, Guam 5.4 01192511925 km 171327953616-04-2024 14:58 kaart
5 km SW of Pāhala, Hawaii 2.3 01191411914 km 171327858716-04-2024 14:43 kaart
7 km SSW of Calimesa, CA 2.0 0089378937 km 171327097216-04-2024 12:36 kaart
12 km ESE of Pāhala, Hawaii 2.0 01191211912 km 171326950016-04-2024 12:11 kaart
135 km SSE of Sand Point, Alaska 3.1 0081668166 km 171326922616-04-2024 12:07 kaart
0 km SW of Pāhala, Hawaii 2.2 01191011910 km 171326504516-04-2024 10:57 kaart
43 km SSW of Ugashik, Alaska 3.0 0078207820 km 171326467316-04-2024 10:51 kaart
133 km ESE of Ust’-Kamchatsk Staryy, Russia 5.0 0079317931 km 171326384116-04-2024 10:37 kaart
142 km ESE of Ust’-Kamchatsk Staryy, Russia 4.9 0079347934 km 171326383116-04-2024 10:37 kaart
20 km ESE of Denali National Park, Alaska 2.0 0070517051 km 171326323616-04-2024 10:27 kaart
17 km W of Bryson City, North Carolina 2.0 0068816881 km 171326100616-04-2024 09:50 kaart
22 km SSW of Gustine, CA 2.0 0088318831 km 171325634816-04-2024 08:32 kaart
11 km ENE of Pine Mountain Club, CA 2.0 0089438943 km 171325272016-04-2024 07:32 kaart
3 km S of Maria Antonia, Puerto Rico 2.5 0071707170 km 171325243216-04-2024 07:27 kaart
64 km SSW of Whites City, New Mexico 2.2 0084748474 km 171325036016-04-2024 06:52 kaart
12 km NW of Pinnacles, CA 2.0 0088848884 km 171324986216-04-2024 06:44 kaart
62 km SSW of Whites City, New Mexico 3.0 0084738473 km 171324919916-04-2024 06:33 kaart
62 km S of Whites City, New Mexico 2.5 0084728472 km 171324911316-04-2024 06:31 kaart
60 km WSW of Adak, Alaska 2.1 0085328532 km 171324805216-04-2024 06:14 kaart
46 km WSW of Arica, Chile 4.2 01063410634 km 171324589116-04-2024 05:38 kaart
59 km WSW of Adak, Alaska 2.0 0085298529 km 171324452116-04-2024 05:15 kaart
59 km WSW of Adak, Alaska 2.3 0085298529 km 171324388416-04-2024 05:04 kaart
59 km WSW of Adak, Alaska 2.1 0085278527 km 171324356116-04-2024 04:59 kaart
2 km S of Indios, Puerto Rico 2.3 0071647164 km 171324040316-04-2024 04:06 kaart
60 km SSW of Whites City, New Mexico 2.2 0084718471 km 171323990616-04-2024 03:58 kaart
41 km E of Denali National Park, Alaska 2.1 0070397039 km 171323927816-04-2024 03:47 kaart
2 km SE of Las Marías, Puerto Rico 2.6 0071527152 km 171323892016-04-2024 03:42 kaart
71 km WSW of Pelabuhanratu, Indonesia 4.8 01143211432 km 171323750116-04-2024 03:18 kaart
45 km W of Petrolia, CA 2.9 0086758675 km 171323692116-04-2024 03:08 kaart
173 km N of Maubara, Timor Leste 4.9 01269712697 km 171323683416-04-2024 03:07 kaart
49 km SSE of Nelchina, Alaska 2.3 0071747174 km 171323492916-04-2024 02:35 kaart
51 km ESE of Pedro Bay, Alaska 2.0 0075037503 km 171323302616-04-2024 02:03 kaart
Rat Islands, Aleutian Islands, Alaska 2.2 0085488548 km 171322294615-04-2024 23:15 kaart
8 km N of Avenal, CA 2.4 0088828882 km 171322266215-04-2024 23:11 kaart
143 km SE of Koshima, Japan 5.9 0096439643 km 171322073715-04-2024 22:38 kaart
20 km ENE of Falls City, Texas 2.6 0083008300 km 171321824515-04-2024 21:57 kaart
88 km ESE of Ugashik, Alaska 3.0 0077887788 km 171321733815-04-2024 21:42 kaart
97 km NNE of Cruz Bay, U.S. Virgin Islands 3.4 0069076907 km 171321612615-04-2024 21:22 kaart
38 km NW of Valdez, Alaska 2.5 0072077207 km 171321497715-04-2024 21:02 kaart
99 km N of Cruz Bay, U.S. Virgin Islands 3.8 0069096909 km 171321467815-04-2024 20:57 kaart
6 km S of Pāhala, Hawaii 2.0 01191511915 km 171321131315-04-2024 20:01 kaart
18 km SW of Salcha, Alaska 2.5 0068916891 km 171320871915-04-2024 19:18 kaart
17 km W of Karluk, Alaska 2.0 0077337733 km 171320858215-04-2024 19:16 kaart
58 km ENE of Pedro Bay, Alaska 3.2 0074567456 km 171320840615-04-2024 19:13 kaart
15 km SSE of Honaunau-Napoopoo, Hawaii 2.7 01190311903 km 171320723915-04-2024 18:53 kaart
7 km SSE of Pāhala, Hawaii 2.0 01191611916 km 171320572315-04-2024 18:28 kaart
41 km SW of Attu Station, Alaska 4.6 0083888388 km 171320502215-04-2024 18:17 kaart
5 km S of Pāhala, Hawaii 3.2 01191511915 km 171320500415-04-2024 18:16 kaart
57 km S of Whites City, New Mexico 2.2 0084638463 km 171320460115-04-2024 18:10 kaart
33 km E of Miches, Dominican Republic 3.7 0072127212 km 171320333815-04-2024 17:48 kaart
5 km S of Pāhala, Hawaii 2.8 01191511915 km 171319868815-04-2024 16:31 kaart
106 km WNW of Yakutat, Alaska 2.1 0072317231 km 171319767515-04-2024 16:14 kaart
18 km E of Julian, CA 2.0 0089858985 km 171319700815-04-2024 16:03 kaart
89 km SSE of Kimbe, Papua New Guinea 4.5 01409514095 km 171319574615-04-2024 15:42 kaart
19 km SW of Susitna, Alaska 2.5 0072657265 km 171319475015-04-2024 15:25 kaart
101 km N of Cruz Bay, U.S. Virgin Islands 3.8 0069056905 km 171318596015-04-2024 12:59 kaart
58 km S of Whites City, New Mexico 2.1 0084638463 km 171318564415-04-2024 12:54 kaart
57 km S of Whites City, New Mexico 2.5 0084638463 km 171318456415-04-2024 12:36 kaart
16 km ENE of Pāhala, Hawaii 2.3 01190111901 km 171318044215-04-2024 11:27 kaart
86 km SW of Malisbeng, Philippines 4.2 01148411484 km 171317950115-04-2024 11:11 kaart
106 km SSW of Kokopo, Papua New Guinea 5.4 01405514055 km 171317780715-04-2024 10:43 kaart
16 km S of Leilani Estates, Hawaii 2.2 01188211882 km 171317677215-04-2024 10:26 kaart
11 km NE of Pāhala, Hawaii 2.4 01190011900 km 171317403815-04-2024 09:40 kaart
49 km SSE of Sand Point, Alaska 3.6 0080968096 km 171317356315-04-2024 09:32 kaart
5 km NE of Mayagüez, Puerto Rico 2.5 0071617161 km 171317292115-04-2024 09:22 kaart
69 km W of Petrolia, CA 3.0 0086888688 km 171317133615-04-2024 08:55 kaart
293 km ENE of Lospalos, Timor Leste 4.3 01297612976 km 171316986215-04-2024 08:31 kaart
227 km SE of Chiniak, Alaska 3.1 0077907790 km 171316720915-04-2024 07:46 kaart
55 km W of Karluk, Alaska 2.0 0077357735 km 171316552415-04-2024 07:18 kaart
75 km NNE of Cruz Bay, U.S. Virgin Islands 3.7 0069206920 km 171316452215-04-2024 07:02 kaart
22 km NNE of Hawaiian Paradise Park, Hawaii 2.3 01183311833 km 171316345315-04-2024 06:44 kaart
3 km NE of Pāhala, Hawaii 2.0 01190611906 km 171316265715-04-2024 06:30 kaart
8 km SW of La Parguera, Puerto Rico 2.4 0071877187 km 171316191415-04-2024 06:18 kaart
103 km SSE of Ierápetra, Greece 4.7 0026032603 km 171316118915-04-2024 06:06 kaart
57 km SSE of Whites City, New Mexico 2.0 0084548454 km 171315842315-04-2024 05:20 kaart
98 km NNE of Tocopilla, Chile 4.2 01081510815 km 171315735715-04-2024 05:02 kaart
13 km ESE of Seldovia, Alaska 2.0 0074937493 km 171315661215-04-2024 04:50 kaart
61 km S of Whites City, New Mexico 2.4 0084718471 km 171315165315-04-2024 03:27 kaart
12 km SSW of Levan, Utah 2.3 0081708170 km 171315132815-04-2024 03:22 kaart
47 km E of Fort Bidwell, California 2.0 0083058305 km 171315116715-04-2024 03:19 kaart
3 km WSW of Indios, Puerto Rico 2.3 0071647164 km 171314958115-04-2024 02:53 kaart
62 km S of Whites City, New Mexico 3.3 0084728472 km 171314422715-04-2024 01:23 kaart
3 km SSE of Maria Antonia, Puerto Rico 2.3 0071707170 km 171313891114-04-2024 23:55 kaart
27 km SSE of Fern Forest, Hawaii 2.2 01189711897 km 171313888014-04-2024 23:54 kaart
92 km SSW of Masachapa, Nicaragua 4.7 0091419141 km 171313734514-04-2024 23:29 kaart
40 km WSW of Adak, Alaska 2.5 0085378537 km 171313705314-04-2024 23:24 kaart
5 km S of Pāhala, Hawaii 2.3 01191511915 km 171313455114-04-2024 22:42 kaart
11 km E of Pāhala, Hawaii 2.1 01190611906 km 171312947814-04-2024 21:17 kaart
15 km N of Snyder, Texas 2.9 0081568156 km 171312835814-04-2024 20:59 kaart
110 km ESE of Kimbe, Papua New Guinea 6.5 01407714077 km 171312818814-04-2024 20:56 kaart
101 km N of Charlotte Amalie, U.S. Virgin Islands 3.7 0069396939 km 171312470614-04-2024 19:58 kaart
17 km SW of Westley, CA 2.9 0088078807 km 171312462314-04-2024 19:57 kaart
106 km N of Charlotte Amalie, U.S. Virgin Islands 3.6 0069346934 km 171312380014-04-2024 19:43 kaart
18 km SW of La Gomera, Guatemala 4.8 0091789178 km 171312209814-04-2024 19:14 kaart
37 km ENE of Mole, China 4.9 0072307230 km 171311858714-04-2024 18:16 kaart
7 km E of Port Hueneme, CA 2.0 0090169016 km 171311680114-04-2024 17:46 kaart
5 km SSW of Guánica, Puerto Rico 2.6 0071757175 km 171311655514-04-2024 17:42 kaart
Mariana Islands region 4.9 01110511105 km 171311635814-04-2024 17:39 kaart
16 km SSW of Pa‘auilo, Hawaii 2.0 01183211832 km 171311444814-04-2024 17:07 kaart
4 km SE of Pecos, Texas 2.1 0084338433 km 171311436614-04-2024 17:06 kaart
11 km ENE of Pāhala, Hawaii 2.3 01190411904 km 171311321014-04-2024 16:46 kaart
7 km ENE of Pāhala, Hawaii 2.3 01190411904 km 171311284614-04-2024 16:40 kaart
59 km WSW of Adak, Alaska 2.2 0085308530 km 171311192514-04-2024 16:25 kaart
59 km WSW of Adak, Alaska 2.1 0085318531 km 171311065514-04-2024 16:04 kaart
4 km N of Frazier Park, CA 2.0 0089418941 km 171310639014-04-2024 14:53 kaart
46 km SW of Nikolski, Alaska 2.4 0084128412 km 171310325014-04-2024 14:00 kaart
116 km SSE of Kyzyl-Suu, Kyrgyzstan 4.6 0055405540 km 171310266114-04-2024 13:51 kaart
30 km W of Olancha, CA 2.0 0087758775 km 171310265214-04-2024 13:50 kaart
9 km NE of Pāhala, Hawaii 2.1 01190211902 km 171310171814-04-2024 13:35 kaart
Rat Islands, Aleutian Islands, Alaska 3.5 0085528552 km 171310004214-04-2024 13:07 kaart
28 km E of Primo Tapia, B.C., MX 2.6 0090789078 km 171309683614-04-2024 12:13 kaart
46 km WSW of Jipijapa, Ecuador 4.6 0098259825 km 171309232214-04-2024 10:58 kaart
2 km NE of Honoka‘a, Hawaii 2.0 01181211812 km 171309119414-04-2024 10:39 kaart
60 km N of Petersville, Alaska 2.0 0070907090 km 171309044814-04-2024 10:27 kaart
30 km W of Olancha, CA 2.4 0087758775 km 171308933714-04-2024 10:08 kaart
6 km WNW of Cobb, CA 2.2 0087398739 km 171308824014-04-2024 09:50 kaart
123 km W of Attu Station, Alaska 3.9 0083418341 km 171308407614-04-2024 08:41 kaart
50 km W of Mentone, Texas 2.0 0084458445 km 171308093214-04-2024 07:48 kaart
2 km NNE of Bacoli, Italy 2.7 0014011401 km 171308066314-04-2024 07:44 kaart
6 km NNW of Delta, B.C., MX 2.0 0089858985 km 171307928714-04-2024 07:21 kaart
21 km N of Ridgecrest, CA 2.6 0087888788 km 171307725614-04-2024 06:47 kaart
2 km S of Willow, Alaska 2.3 0072207220 km 171307681614-04-2024 06:40 kaart
34 km SE of Malaga, New Mexico 2.4 0083998399 km 171307668114-04-2024 06:38 kaart
9 km NE of Gilroy, CA 2.4 0088518851 km 171307583614-04-2024 06:23 kaart
44 km E of Farkhār, Afghanistan 4.0 0053305330 km 171307431414-04-2024 05:58 kaart
52 km W of Stella, Puerto Rico 3.4 0072047204 km 171307302614-04-2024 05:37 kaart
82 km SW of Basco, Philippines 4.8 01000510005 km 171307270914-04-2024 05:31 kaart
central Mid-Atlantic Ridge 5.3 0061886188 km 171307252714-04-2024 05:28 kaart
8 km NNE of El Rosario, Nicaragua 4.2 0090329032 km 171307248914-04-2024 05:28 kaart
59 km WSW of Adak, Alaska 2.6 0085338533 km 171307048214-04-2024 04:54 kaart
259 km ENE of Kuril’sk, Russia 4.2 0087158715 km 171307023714-04-2024 04:50 kaart
13 km ESE of Pāhala, Hawaii 2.4 01191311913 km 171307019614-04-2024 04:49 kaart
8 km W of Progreso, B.C., MX 2.2 0089918991 km 171306940414-04-2024 04:36 kaart
7 km SSE of Guánica, Puerto Rico 2.2 0071757175 km 171306753914-04-2024 04:05 kaart
77 km SSW of Unalaska, Alaska 3.6 0083398339 km 171306708314-04-2024 03:58 kaart
199 km WSW of Adak, Alaska 3.7 0085908590 km 171306498214-04-2024 03:23 kaart
57 km SE of Embarcación, Argentina 4.5 01065610656 km 171306458414-04-2024 03:16 kaart
53 km WNW of Ninilchik, Alaska 2.3 0074157415 km 171306437014-04-2024 03:12 kaart
55 km S of Whites City, New Mexico 2.0 0084628462 km 171306291514-04-2024 02:48 kaart
60 km WSW of Adak, Alaska 2.9 0085348534 km 171306238714-04-2024 02:39 kaart
6 km SE of Tyonek, Alaska 2.5 0073117311 km 171306134614-04-2024 02:22 kaart
19 km NNW of Mantoúdi, Greece 4.5 0020282028 km 171306016314-04-2024 02:02 kaart
2 km SW of Pāhala, Hawaii 2.0 01191211912 km 171304785713-04-2024 22:37 kaart
47 km SW of Nanwalek, Alaska 2.2 0075437543 km 171304240013-04-2024 21:06 kaart
3 km NW of Edgefield, Louisiana 2.6 0077687768 km 171304144813-04-2024 20:50 kaart
27 km ESE of Balmorhea, Texas 2.7 0084808480 km 171304037613-04-2024 20:32 kaart
6 km E of Susitna North, Alaska 4.1 0071697169 km 171303904413-04-2024 20:10 kaart
65 km WSW of Lake Minchumina, Alaska 2.6 0070567056 km 171303872613-04-2024 20:05 kaart
2 km SSE of Punta Cana, Dominican Republic 3.5 0072237223 km 171303838713-04-2024 19:59 kaart
0 km ENE of Cagamotan, Philippines 4.5 01092810928 km 171303675113-04-2024 19:32 kaart
9 km ESE of Williamsville, Missouri 2.2 0071887188 km 171303670413-04-2024 19:31 kaart
37 km W of Mentone, Texas 2.1 0084358435 km 171303661913-04-2024 19:30 kaart
109 km WNW of San Antonio de los Cobres, Argentina 4.0 01090410904 km 171303645013-04-2024 19:27 kaart
85 km WNW of Ollagüe, Chile 4.2 01073810738 km 171303540613-04-2024 19:10 kaart
46 km W of Mentone, Texas 2.9 0084398439 km 171303465913-04-2024 18:57 kaart
156 km WNW of Tobelo, Indonesia 4.6 01194211942 km 171303041913-04-2024 17:46 kaart
15 km ENE of Istiaía, Greece 4.2 0020202020 km 171302724913-04-2024 16:54 kaart
163 km WNW of Tobelo, Indonesia 5.3 01196311963 km 171302645513-04-2024 16:40 kaart
86 km SSE of Kuril’sk, Russia 4.4 0087848784 km 171302579113-04-2024 16:29 kaart
13 km NNE of Borrego Springs, CA 3.8 0089518951 km 171302451813-04-2024 16:08 kaart
116 km E of Bitung, Indonesia 4.6 01201512015 km 171302341713-04-2024 15:50 kaart
2 km WSW of Hualien City, Taiwan 4.7 0096329632 km 171301839613-04-2024 14:26 kaart
37 km E of Miches, Dominican Republic 3.8 0072067206 km 171301628713-04-2024 13:51 kaart
4 km WSW of West Bishop, CA 3.1 0086848684 km 171301591713-04-2024 13:45 kaart
12 km SE of Manton, CA 2.1 0085518551 km 171301531013-04-2024 13:35 kaart
37 km WSW of Tatitlek, Alaska 2.3 0072777277 km 171301442413-04-2024 13:20 kaart
34 km S of Hualien City, Taiwan 4.7 0096629662 km 171301192813-04-2024 12:38 kaart
Izu Islands, Japan region 4.5 0097359735 km 171300962913-04-2024 12:00 kaart
76 km NW of Fort St. John, Canada 4.1 0070027002 km 171300730813-04-2024 11:21 kaart
2 km SW of Indios, Puerto Rico 2.6 0071647164 km 171300705413-04-2024 11:17 kaart
North Pacific Ocean 4.7 01049810498 km 171300467413-04-2024 10:37 kaart
61 km SW of Covenant Life, Alaska 2.6 0072367236 km 171300225513-04-2024 09:57 kaart
18 km WNW of Auburn, Wyoming 2.6 0078337833 km 171300154513-04-2024 09:45 kaart
7 km NW of The Geysers, CA 2.3 0087408740 km 171299992713-04-2024 09:18 kaart
34 km E of Sulat, Philippines 4.7 01100111001 km 171299944913-04-2024 09:10 kaart
13 km WNW of Tyonek, Alaska 2.1 0073067306 km 171299917713-04-2024 09:06 kaart
14 km ESE of Lincoln, Montana 2.3 0075327532 km 171299899213-04-2024 09:03 kaart
49 km NNE of Luquillo, Puerto Rico 3.6 0070057005 km 171299877513-04-2024 08:59 kaart
13 km NE of Ashford, Washington 2.2 0079387938 km 171299864413-04-2024 08:57 kaart
54 km SSW of Whites City, New Mexico 2.1 0084688468 km 171299341413-04-2024 07:30 kaart
119 km N of San Juan, Puerto Rico 3.6 0069746974 km 171299167113-04-2024 07:01 kaart
southeast Indian Ridge 5.0 01319813198 km 171299122413-04-2024 06:53 kaart
151 km WNW of Tobelo, Indonesia 5.2 01195811958 km 171298959513-04-2024 06:26 kaart
11 km S of Atoka, New Mexico 2.8 0083728372 km 171298732213-04-2024 05:48 kaart
western Xizang 5.5 0063326332 km 171298707913-04-2024 05:44 kaart
western Xizang 4.5 0063276327 km 171298704513-04-2024 05:44 kaart
43 km NW of Tatitlek, Alaska 2.1 0072337233 km 171298615813-04-2024 05:29 kaart
14 km SSW of Atoka, New Mexico 2.5 0083788378 km 171298223313-04-2024 04:23 kaart
23 km W of Puako, Hawaii 2.2 01184111841 km 171297584513-04-2024 02:37 kaart
19 km ENE of Istiaía, Greece 4.3 0020232023 km 171297499413-04-2024 02:23 kaart
28 km SSW of Womens Bay, Alaska 2.4 0077217721 km 171297464813-04-2024 02:17 kaart
4 km S of Pāhala, Hawaii 2.5 01191411914 km 171296839513-04-2024 00:33 kaart
3 km SSE of Indios, Puerto Rico 2.1 0071647164 km 171296796613-04-2024 00:26 kaart
93 km NE of Masohi, Indonesia 4.4 01257412574 km 171296786513-04-2024 00:24 kaart
68 km SSW of La Tirana, Chile 4.0 01081710817 km 171296657813-04-2024 00:02 kaart
63 km WNW of Anchor Point, Alaska 2.1 0074487448 km 171296638812-04-2024 23:59 kaart
73 km E of Lime Village, Alaska 2.0 0073137313 km 171296275812-04-2024 22:59 kaart
211 km ENE of Olonkinbyen, Svalbard and Jan Mayen 4.7 0022592259 km 171296032012-04-2024 22:18 kaart
8 km S of Princeton, Canada 2.0 0076457645 km 171295765212-04-2024 21:34 kaart
34 km NNE of Cold Bay, Alaska 2.2 0080568056 km 171295617312-04-2024 21:09 kaart
93 km W of Coquimbo, Chile 4.1 01174411744 km 171295577412-04-2024 21:02 kaart
40 km S of San Francisco del Mar Viejo, Mexico 4.2 0092449244 km 171295394912-04-2024 20:32 kaart
northern East Pacific Rise 4.6 01042110421 km 171295007112-04-2024 19:27 kaart
2 km SE of Long Beach, CA 2.6 0090039003 km 171294988812-04-2024 19:24 kaart
31 km WSW of Pizitou, Taiwan 4.6 0096019601 km 171294747612-04-2024 18:44 kaart
12 km E of Pāhala, Hawaii 2.0 01190711907 km 171294712612-04-2024 18:38 kaart
10 km ESE of Red Bluff, CA 2.7 0085828582 km 171294610212-04-2024 18:21 kaart
20 km SSE of Pāhala, Hawaii 2.0 01192411924 km 171294386412-04-2024 17:44 kaart
71 km W of Petrolia, CA 2.4 0086878687 km 171294367112-04-2024 17:41 kaart
66 km ENE of Pedro Bay, Alaska 2.0 0074397439 km 171294185612-04-2024 17:10 kaart
185 km SE of Katsuura, Japan 4.7 0096349634 km 171294166812-04-2024 17:07 kaart
78 km W of Petrolia, CA 4.0 0086918691 km 171294165212-04-2024 17:07 kaart
7 km NW of The Geysers, CA 2.2 0087428742 km 171294014012-04-2024 16:42 kaart
114 km WNW of Kirakira, Solomon Islands 5.8 01494314943 km 171293755812-04-2024 15:59 kaart

421 earthquakes found. Click on location or map links for more details from the USGS


Kaart en gegevens eigendom van United States Geological Survey

Script ontwikkeld door  Saratoga-weather.org Aangepast voor de template door  Weerstation Leuven (version 3.21)

Apparatuur in gebruik:

Weerstation
Davis VP2

Weerprogramma
Weather Display

Weercomputer
Shuttle

Webleverancier
WeservIT

Davis VP2

Weather Display

Shuttle

WeservIT